Time;durP1;ratioP1;P1;durP2;ratioP2;P2;SDS_P1;SDS_P2;PMS_P1;PMS_P2;Temp;Humidity;BMP_temperature;BMP_pressure;BME280_temperature;BME280_humidity;BME280_pressure;Samples;Min_cycle;Max_cycle;Signal;HPM_P1;HPM_P2
2024/04/17 00:06:42;;;;;;;;;;;5.40;99.90;;;;;;22704588;26;19927;-77
2024/04/17 00:16:43;;;;;;;;;;;5.30;99.90;;;;;;22701854;26;19935;-76
2024/04/17 00:26:44;;;;;;;;;;;5.30;99.90;;;;;;22711434;26;20073;-77
2024/04/17 00:36:44;;;;;;;;;;;5.30;99.90;;;;;;22722560;26;19935;-77
2024/04/17 00:46:45;;;;;;;;;;;5.30;99.90;;;;;;22715795;26;20015;-77
2024/04/17 00:56:46;;;;;;;;;;;5.30;99.90;;;;;;22716869;26;20328;-76
2024/04/17 01:06:46;;;;;;;;;;;5.30;99.90;;;;;;22715728;26;19928;-76
2024/04/17 01:16:47;;;;;;;;;;;5.30;99.90;;;;;;22714239;26;19942;-76
2024/04/17 01:26:48;;;;;;;;;;;5.30;99.90;;;;;;22719509;26;19931;-77
2024/04/17 01:36:49;;;;;;;;;;;5.20;99.90;;;;;;22715317;26;19952;-77
2024/04/17 01:46:49;;;;;;;;;;;5.10;99.90;;;;;;22714232;26;19928;-77
2024/04/17 01:56:51;;;;;;;;;;;5.10;99.90;;;;;;22704438;26;19936;-77
2024/04/17 02:06:52;;;;;;;;;;;5.10;99.90;;;;;;22715911;26;19928;-78
2024/04/17 02:16:52;;;;;;;;;;;5.10;99.90;;;;;;22716624;26;19934;-78
2024/04/17 02:26:53;;;;;;;;;;;5.00;99.90;;;;;;22718217;26;19928;-77
2024/04/17 02:36:54;;;;;;;;;;;5.00;99.90;;;;;;22713621;26;19935;-76
2024/04/17 02:46:56;;;;;;;;;;;5.00;99.90;;;;;;22710298;26;20267;-77
2024/04/17 02:56:57;;;;;;;;;;;5.00;99.90;;;;;;22697329;26;20274;-77
2024/04/17 03:06:59;;;;;;;;;;;5.00;99.90;;;;;;22708176;26;20313;-77
2024/04/17 03:17:00;;;;;;;;;;;5.00;99.90;;;;;;22708356;26;19928;-77
2024/04/17 03:27:01;;;;;;;;;;;4.90;99.90;;;;;;22701130;26;20399;-77
2024/04/17 03:37:01;;;;;;;;;;;5.00;99.90;;;;;;22716767;26;19928;-77
2024/04/17 03:47:02;;;;;;;;;;;4.90;99.90;;;;;;22710471;26;19998;-76
2024/04/17 03:57:03;;;;;;;;;;;4.90;99.90;;;;;;22710655;26;19956;-77
2024/04/17 04:07:04;;;;;;;;;;;4.90;99.90;;;;;;22712099;26;19939;-77
2024/04/17 04:17:05;;;;;;;;;;;4.90;99.90;;;;;;22649414;26;19936;-74
2024/04/17 04:27:05;;;;;;;;;;;4.80;99.90;;;;;;22664829;26;19977;-77
2024/04/17 04:37:06;;;;;;;;;;;4.80;99.90;;;;;;22622703;26;19929;-77
2024/04/17 04:47:07;;;;;;;;;;;4.80;99.90;;;;;;22663895;26;19928;-77
2024/04/17 04:57:07;;;;;;;;;;;4.80;99.90;;;;;;22577221;26;20267;-77
2024/04/17 05:07:08;;;;;;;;;;;4.70;99.90;;;;;;22690115;26;19928;-77
2024/04/17 05:17:09;;;;;;;;;;;4.70;99.90;;;;;;22606666;26;20444;-77
2024/04/17 05:27:09;;;;;;;;;;;4.70;99.90;;;;;;22571348;26;19936;-77
2024/04/17 05:37:10;;;;;;;;;;;4.70;99.90;;;;;;22570221;26;19928;-78
2024/04/17 05:47:11;;;;;;;;;;;4.80;99.90;;;;;;22587157;26;20270;-77
2024/04/17 05:57:12;;;;;;;;;;;4.80;99.90;;;;;;22597202;26;19935;-76
2024/04/17 06:07:12;;;;;;;;;;;4.80;99.90;;;;;;22650835;26;19934;-77
2024/04/17 06:17:13;;;;;;;;;;;4.80;99.90;;;;;;22695650;26;19928;-76
2024/04/17 06:27:14;;;;;;;;;;;4.80;99.90;;;;;;22716605;26;19935;-77
2024/04/17 06:37:14;;;;;;;;;;;4.80;99.90;;;;;;22701738;26;19932;-76
2024/04/17 06:47:15;;;;;;;;;;;4.90;99.90;;;;;;22689742;26;19929;-77
2024/04/17 06:57:16;;;;;;;;;;;5.00;99.90;;;;;;22613088;26;19986;-77
2024/04/17 07:07:17;;;;;;;;;;;4.90;99.90;;;;;;22600796;26;19935;-77
2024/04/17 07:17:17;;;;;;;;;;;5.00;99.90;;;;;;22621851;26;19927;-77
2024/04/17 07:27:18;;;;;;;;;;;5.10;99.90;;;;;;22659099;26;19936;-76
2024/04/17 07:37:19;;;;;;;;;;;4.90;99.90;;;;;;22672992;26;20428;-77
2024/04/17 07:47:19;;;;;;;;;;;4.70;99.90;;;;;;22621139;26;20353;-76
2024/04/17 07:57:20;;;;;;;;;;;4.90;99.90;;;;;;22565169;26;19935;-77
2024/04/17 08:07:20;;;;;;;;;;;4.70;99.90;;;;;;22636614;26;20377;-77
2024/04/17 08:17:21;;;;;;;;;;;4.80;99.90;;;;;;22710380;26;19928;-76
2024/04/17 08:27:22;;;;;;;;;;;5.10;99.90;;;;;;22708915;26;19928;-76
2024/04/17 08:37:23;;;;;;;;;;;5.40;99.90;;;;;;22709308;26;19939;-76
2024/04/17 08:47:25;;;;;;;;;;;5.90;99.90;;;;;;22715212;26;19939;-77
2024/04/17 08:57:26;;;;;;;;;;;5.30;99.90;;;;;;22720486;26;19936;-77
2024/04/17 09:07:28;;;;;;;;;;;5.40;99.90;;;;;;22722015;26;19935;-77
2024/04/17 09:17:28;;;;;;;;;;;5.10;99.90;;;;;;22710378;26;19928;-77
2024/04/17 09:27:32;;;;;;;;;;;5.00;99.90;;;;;;22717751;26;19969;-77
2024/04/17 09:37:33;;;;;;;;;;;4.90;99.90;;;;;;22720709;26;20419;-76
2024/04/17 09:47:33;;;;;;;;;;;4.90;99.90;;;;;;22717640;26;19928;-75
2024/04/17 09:57:34;;;;;;;;;;;5.10;99.90;;;;;;22715848;26;19928;-76
2024/04/17 10:07:37;;;;;;;;;;;5.30;99.90;;;;;;22714152;26;19997;-76
2024/04/17 10:17:37;;;;;;;;;;;5.30;99.90;;;;;;22717824;26;20378;-77
2024/04/17 10:27:38;;;;;;;;;;;5.40;99.90;;;;;;22710538;26;19928;-77
2024/04/17 10:37:39;;;;;;;;;;;5.30;99.90;;;;;;22715067;26;19939;-77
2024/04/17 10:47:40;;;;;;;;;;;5.40;99.90;;;;;;22714726;26;19928;-77
2024/04/17 10:57:40;;;;;;;;;;;5.40;99.90;;;;;;22719373;26;20322;-75
2024/04/17 11:07:41;;;;;;;;;;;5.20;99.90;;;;;;22663484;26;20370;-76
2024/04/17 11:17:42;;;;;;;;;;;4.50;99.90;;;;;;22717137;26;19935;-76
2024/04/17 11:27:43;;;;;;;;;;;4.40;99.90;;;;;;22720516;26;19956;-77
2024/04/17 11:37:48;;;;;;;;;;;4.70;99.90;;;;;;22643040;26;19935;-76
2024/04/17 11:47:49;;;;;;;;;;;5.10;99.90;;;;;;22602411;26;19940;-77
2024/04/17 11:57:49;;;;;;;;;;;5.40;99.90;;;;;;22712435;26;19973;-77
2024/04/17 12:07:51;;;;;;;;;;;6.20;99.90;;;;;;22711204;26;19934;-76
2024/04/17 12:17:51;;;;;;;;;;;7.20;99.90;;;;;;22659810;26;20356;-75
2024/04/17 12:27:52;;;;;;;;;;;7.40;99.90;;;;;;22621452;26;19932;-77
2024/04/17 12:37:53;;;;;;;;;;;7.80;99.90;;;;;;22637918;26;19928;-76
2024/04/17 12:47:54;;;;;;;;;;;7.40;99.90;;;;;;22640250;26;19936;-76
2024/04/17 12:57:55;;;;;;;;;;;7.80;99.90;;;;;;22572208;26;19933;-77
2024/04/17 13:07:55;;;;;;;;;;;7.90;99.90;;;;;;22571986;26;19940;-76
2024/04/17 13:17:56;;;;;;;;;;;8.50;99.90;;;;;;22578867;26;20286;-78
2024/04/17 13:27:57;;;;;;;;;;;8.80;99.90;;;;;;22720384;26;19936;-77
2024/04/17 13:37:57;;;;;;;;;;;8.80;99.90;;;;;;22684922;26;19928;-76
2024/04/17 13:47:58;;;;;;;;;;;8.90;99.90;;;;;;22719204;26;19977;-77
2024/04/17 13:57:59;;;;;;;;;;;9.40;99.90;;;;;;22720998;26;20324;-77
2024/04/17 14:07:59;;;;;;;;;;;8.80;99.90;;;;;;22659608;26;19934;-76
2024/04/17 14:18:00;;;;;;;;;;;9.20;99.90;;;;;;22657174;26;20252;-77
2024/04/17 14:28:02;;;;;;;;;;;9.70;99.90;;;;;;22639000;26;19928;-76
2024/04/17 14:38:03;;;;;;;;;;;10.40;99.90;;;;;;22678275;26;19936;-76
2024/04/17 14:48:03;;;;;;;;;;;10.10;99.90;;;;;;22705964;26;20007;-76
2024/04/17 14:58:04;;;;;;;;;;;10.10;99.90;;;;;;22643958;26;19928;-76
2024/04/17 15:08:05;;;;;;;;;;;9.70;99.90;;;;;;22705968;26;19928;-76
2024/04/17 15:18:06;;;;;;;;;;;9.30;99.90;;;;;;22714614;26;19928;-75
2024/04/17 15:28:06;;;;;;;;;;;8.90;99.90;;;;;;22696814;26;20340;-75
2024/04/17 15:38:07;;;;;;;;;;;8.70;99.90;;;;;;22711089;26;19956;-75
2024/04/17 15:48:08;;;;;;;;;;;7.60;99.90;;;;;;22699508;26;19996;-74
2024/04/17 15:58:08;;;;;;;;;;;6.90;99.90;;;;;;22615047;26;19994;-75
2024/04/17 16:08:09;;;;;;;;;;;6.70;99.90;;;;;;22710300;26;20341;-78
2024/04/17 16:18:09;;;;;;;;;;;6.90;99.90;;;;;;22673505;26;19957;-77
2024/04/17 16:28:11;;;;;;;;;;;6.30;99.90;;;;;;22655761;26;19928;-77
2024/04/17 16:38:11;;;;;;;;;;;5.90;99.90;;;;;;22693038;26;19960;-76
2024/04/17 16:48:12;;;;;;;;;;;6.50;99.90;;;;;;22610033;26;19942;-77
2024/04/17 16:58:12;;;;;;;;;;;6.80;99.90;;;;;;22603813;26;19935;-76
2024/04/17 17:08:13;;;;;;;;;;;7.00;99.90;;;;;;22656237;26;20501;-76
2024/04/17 17:18:14;;;;;;;;;;;6.70;99.90;;;;;;22723131;26;19935;-76
2024/04/17 17:28:14;;;;;;;;;;;6.20;99.90;;;;;;22705346;26;19935;-76
2024/04/17 17:38:15;;;;;;;;;;;5.90;99.90;;;;;;22720302;26;19935;-76
2024/04/17 17:48:16;;;;;;;;;;;5.80;99.90;;;;;;22716226;26;19928;-76
2024/04/17 17:58:17;;;;;;;;;;;5.80;99.90;;;;;;22628725;26;19958;-76
2024/04/17 18:08:18;;;;;;;;;;;5.70;99.90;;;;;;22627559;26;19928;-76
2024/04/17 18:18:19;;;;;;;;;;;5.60;99.90;;;;;;22716672;26;19928;-76
2024/04/17 18:28:20;;;;;;;;;;;5.60;99.90;;;;;;22709463;26;19927;-76
2024/04/17 18:38:20;;;;;;;;;;;5.20;99.90;;;;;;22602443;26;19929;-76
2024/04/17 18:48:21;;;;;;;;;;;4.90;99.90;;;;;;22669506;26;20271;-76
2024/04/17 18:58:22;;;;;;;;;;;5.00;99.90;;;;;;22684888;26;19936;-77
2024/04/17 19:08:23;;;;;;;;;;;5.10;99.90;;;;;;22669189;26;20439;-77
2024/04/17 19:18:24;;;;;;;;;;;5.00;99.90;;;;;;22672378;26;19932;-77
2024/04/17 19:28:25;;;;;;;;;;;4.80;99.90;;;;;;22680576;26;19997;-77
2024/04/17 19:38:26;;;;;;;;;;;4.70;99.90;;;;;;22592625;26;19953;-78
2024/04/17 19:48:27;;;;;;;;;;;4.70;99.90;;;;;;22569818;26;20293;-77
2024/04/17 19:58:30;;;;;;;;;;;4.80;99.90;;;;;;22573901;26;19928;-78
2024/04/17 20:08:31;;;;;;;;;;;4.70;99.90;;;;;;22678516;26;19936;-77
2024/04/17 20:18:32;;;;;;;;;;;4.60;99.90;;;;;;22613542;26;20334;-77
2024/04/17 20:28:34;;;;;;;;;;;4.60;99.90;;;;;;22681172;26;19927;-77
2024/04/17 20:38:35;;;;;;;;;;;4.70;99.90;;;;;;22708966;26;19928;-77
2024/04/17 20:48:36;;;;;;;;;;;4.70;99.90;;;;;;22665816;26;20383;-77
2024/04/17 20:58:37;;;;;;;;;;;4.70;99.90;;;;;;22645592;26;19929;-77
2024/04/17 21:08:38;;;;;;;;;;;4.50;99.90;;;;;;22645636;26;19935;-78
2024/04/17 21:18:39;;;;;;;;;;;4.40;99.90;;;;;;22669523;26;20316;-77
2024/04/17 21:28:44;;;;;;;;;;;4.30;99.90;;;;;;22722543;26;19928;-77
2024/04/17 21:38:45;;;;;;;;;;;3.70;99.90;;;;;;22718249;26;19935;-77
2024/04/17 21:48:45;;;;;;;;;;;3.50;99.90;;;;;;22593322;26;19941;-77
2024/04/17 21:58:46;;;;;;;;;;;3.90;99.90;;;;;;22672783;26;19997;-77
2024/04/17 22:08:47;;;;;;;;;;;4.10;99.90;;;;;;22667116;26;20136;-76
2024/04/17 22:18:47;;;;;;;;;;;4.20;99.90;;;;;;22705900;26;19928;-76
2024/04/17 22:28:49;;;;;;;;;;;4.50;99.90;;;;;;22716697;26;19992;-76
2024/04/17 22:38:50;;;;;;;;;;;4.30;99.90;;;;;;22690242;26;20351;-77
2024/04/17 22:48:51;;;;;;;;;;;4.30;99.90;;;;;;22576929;26;19935;-77
2024/04/17 22:58:51;;;;;;;;;;;4.30;99.90;;;;;;22565079;26;19928;-77
2024/04/17 23:08:52;;;;;;;;;;;4.30;99.90;;;;;;22564538;26;19928;-77
2024/04/17 23:18:53;;;;;;;;;;;4.30;99.90;;;;;;22564850;26;21044;-76
2024/04/17 23:28:54;;;;;;;;;;;4.40;99.90;;;;;;22613030;26;19939;-76
2024/04/17 23:38:54;;;;;;;;;;;4.40;99.90;;;;;;22664818;26;19996;-76
2024/04/17 23:48:55;;;;;;;;;;;4.40;99.90;;;;;;22849451;25;19932;-77
2024/04/17 23:58:55;;;;;;;;;;;4.40;99.90;;;;;;22849604;25;19972;-77
